sensor_id;sensor_type;location;lat;lon;timestamp;temperature;humidity
6843;DHT22;3460;52.028;8.916;2023-12-28T00:00:30;8.30;99.90
6843;DHT22;3460;52.028;8.916;2023-12-28T00:02:57;8.40;99.90
6843;DHT22;3460;52.028;8.916;2023-12-28T00:05:23;8.50;99.90
6843;DHT22;3460;52.028;8.916;2023-12-28T00:07:50;8.70;1.00
6843;DHT22;3460;52.028;8.916;2023-12-28T00:10:25;8.70;1.00
6843;DHT22;3460;52.028;8.916;2023-12-28T00:12:52;8.70;1.00
6843;DHT22;3460;52.028;8.916;2023-12-28T00:15:18;8.70;1.00
6843;DHT22;3460;52.028;8.916;2023-12-28T00:17:45;8.70;1.00
6843;DHT22;3460;52.028;8.916;2023-12-28T00:20:12;8.70;2.70
6843;DHT22;3460;52.028;8.916;2023-12-28T00:22:39;8.70;99.90
6843;DHT22;3460;52.028;8.916;2023-12-28T00:25:06;8.60;99.90
6843;DHT22;3460;52.028;8.916;2023-12-28T00:27:34;8.60;99.90
6843;DHT22;3460;52.028;8.916;2023-12-28T00:30:04;8.60;99.90
6843;DHT22;3460;52.028;8.916;2023-12-28T00:32:31;8.50;99.90
6843;DHT22;3460;52.028;8.916;2023-12-28T00:34:57;8.50;99.90
6843;DHT22;3460;52.028;8.916;2023-12-28T00:37:24;8.40;99.90
6843;DHT22;3460;52.028;8.916;2023-12-28T00:39:51;8.40;99.90
6843;DHT22;3460;52.028;8.916;2023-12-28T00:42:18;8.40;99.90
6843;DHT22;3460;52.028;8.916;2023-12-28T00:44:46;8.40;99.90
6843;DHT22;3460;52.028;8.916;2023-12-28T00:47:13;8.30;99.90
6843;DHT22;3460;52.028;8.916;2023-12-28T00:49:39;8.40;99.90
6843;DHT22;3460;52.028;8.916;2023-12-28T00:52:06;8.30;99.90
6843;DHT22;3460;52.028;8.916;2023-12-28T00:54:34;8.20;99.90
6843;DHT22;3460;52.028;8.916;2023-12-28T00:57:01;8.20;99.90
6843;DHT22;3460;52.028;8.916;2023-12-28T00:59:27;8.20;99.90
6843;DHT22;3460;52.028;8.916;2023-12-28T01:01:57;8.20;99.90
6843;DHT22;3460;52.028;8.916;2023-12-28T01:04:23;8.10;99.90
6843;DHT22;3460;52.028;8.916;2023-12-28T01:06:51;8.10;99.90
6843;DHT22;3460;52.028;8.916;2023-12-28T01:09:18;8.10;99.90
6843;DHT22;3460;52.028;8.916;2023-12-28T01:11:45;8.00;99.90
6843;DHT22;3460;52.028;8.916;2023-12-28T01:14:11;8.10;99.90
6843;DHT22;3460;52.028;8.916;2023-12-28T01:16:38;8.10;99.90
6843;DHT22;3460;52.028;8.916;2023-12-28T01:19:07;8.10;99.90
6843;DHT22;3460;52.028;8.916;2023-12-28T01:21:33;8.10;99.90
6843;DHT22;3460;52.028;8.916;2023-12-28T01:24:00;8.10;99.90
6843;DHT22;3460;52.028;8.916;2023-12-28T01:26:27;8.10;99.90
6843;DHT22;3460;52.028;8.916;2023-12-28T01:28:54;8.10;99.90
6843;DHT22;3460;52.028;8.916;2023-12-28T01:31:22;8.10;99.90
6843;DHT22;3460;52.028;8.916;2023-12-28T01:33:49;8.10;99.90
6843;DHT22;3460;52.028;8.916;2023-12-28T01:36:19;8.10;99.90
6843;DHT22;3460;52.028;8.916;2023-12-28T01:38:46;8.10;99.90
6843;DHT22;3460;52.028;8.916;2023-12-28T01:41:13;8.10;99.90
6843;DHT22;3460;52.028;8.916;2023-12-28T01:43:40;8.20;99.90
6843;DHT22;3460;52.028;8.916;2023-12-28T01:46:10;8.20;99.90
6843;DHT22;3460;52.028;8.916;2023-12-28T01:48:39;8.20;99.90
6843;DHT22;3460;52.028;8.916;2023-12-28T01:51:06;8.20;99.90
6843;DHT22;3460;52.028;8.916;2023-12-28T01:53:34;8.20;99.90
6843;DHT22;3460;52.028;8.916;2023-12-28T01:56:01;8.30;99.90
6843;DHT22;3460;52.028;8.916;2023-12-28T01:58:29;8.30;99.90
6843;DHT22;3460;52.028;8.916;2023-12-28T02:00:59;8.30;99.90
6843;DHT22;3460;52.028;8.916;2023-12-28T02:03:26;8.30;99.90
6843;DHT22;3460;52.028;8.916;2023-12-28T02:05:53;8.30;99.90
6843;DHT22;3460;52.028;8.916;2023-12-28T02:08:21;8.40;99.90
6843;DHT22;3460;52.028;8.916;2023-12-28T02:10:49;8.50;99.90
6843;DHT22;3460;52.028;8.916;2023-12-28T02:13:16;8.50;99.90
6843;DHT22;3460;52.028;8.916;2023-12-28T02:15:43;8.50;99.90
6843;DHT22;3460;52.028;8.916;2023-12-28T02:18:12;8.50;99.90
6843;DHT22;3460;52.028;8.916;2023-12-28T02:20:43;8.50;99.90
6843;DHT22;3460;52.028;8.916;2023-12-28T02:23:10;8.50;99.90
6843;DHT22;3460;52.028;8.916;2023-12-28T02:25:38;8.50;99.90
6843;DHT22;3460;52.028;8.916;2023-12-28T02:28:05;8.60;99.90
6843;DHT22;3460;52.028;8.916;2023-12-28T02:30:32;8.70;99.90
6843;DHT22;3460;52.028;8.916;2023-12-28T02:33:07;8.70;99.90
6843;DHT22;3460;52.028;8.916;2023-12-28T02:35:40;8.70;99.90
6843;DHT22;3460;52.028;8.916;2023-12-28T02:38:10;8.70;99.90
6843;DHT22;3460;52.028;8.916;2023-12-28T02:40:40;8.80;99.90
6843;DHT22;3460;52.028;8.916;2023-12-28T02:43:09;8.70;99.90
6843;DHT22;3460;52.028;8.916;2023-12-28T02:45:37;8.80;99.90
6843;DHT22;3460;52.028;8.916;2023-12-28T02:48:05;8.90;99.90
6843;DHT22;3460;52.028;8.916;2023-12-28T02:50:32;8.90;99.90
6843;DHT22;3460;52.028;8.916;2023-12-28T02:52:59;8.90;99.90
6843;DHT22;3460;52.028;8.916;2023-12-28T02:55:26;9.00;99.90
6843;DHT22;3460;52.028;8.916;2023-12-28T02:57:56;9.00;99.90
6843;DHT22;3460;52.028;8.916;2023-12-28T03:00:25;9.00;99.90
6843;DHT22;3460;52.028;8.916;2023-12-28T03:02:52;9.00;99.90
6843;DHT22;3460;52.028;8.916;2023-12-28T03:05:19;9.00;99.90
6843;DHT22;3460;52.028;8.916;2023-12-28T03:07:46;8.90;99.90
6843;DHT22;3460;52.028;8.916;2023-12-28T03:10:13;8.90;99.90
6843;DHT22;3460;52.028;8.916;2023-12-28T03:12:40;8.90;99.90
6843;DHT22;3460;52.028;8.916;2023-12-28T03:15:08;9.00;99.90
6843;DHT22;3460;52.028;8.916;2023-12-28T03:17:35;9.00;99.90
6843;DHT22;3460;52.028;8.916;2023-12-28T03:20:02;9.00;99.90
6843;DHT22;3460;52.028;8.916;2023-12-28T03:22:29;9.00;99.90
6843;DHT22;3460;52.028;8.916;2023-12-28T03:24:56;9.00;99.90
6843;DHT22;3460;52.028;8.916;2023-12-28T03:27:23;9.00;99.90
6843;DHT22;3460;52.028;8.916;2023-12-28T03:29:49;9.00;99.90
6843;DHT22;3460;52.028;8.916;2023-12-28T03:32:17;9.00;99.90
6843;DHT22;3460;52.028;8.916;2023-12-28T03:34:44;9.10;99.90
6843;DHT22;3460;52.028;8.916;2023-12-28T03:37:11;9.10;99.90
6843;DHT22;3460;52.028;8.916;2023-12-28T03:39:38;9.00;99.90
6843;DHT22;3460;52.028;8.916;2023-12-28T03:42:04;9.00;99.90
6843;DHT22;3460;52.028;8.916;2023-12-28T03:44:32;9.00;99.90
6843;DHT22;3460;52.028;8.916;2023-12-28T03:46:58;9.10;99.90
6843;DHT22;3460;52.028;8.916;2023-12-28T03:49:27;9.20;99.90
6843;DHT22;3460;52.028;8.916;2023-12-28T03:51:54;9.10;99.90
6843;DHT22;3460;52.028;8.916;2023-12-28T03:54:21;9.10;99.90
6843;DHT22;3460;52.028;8.916;2023-12-28T03:56:47;9.10;99.90
6843;DHT22;3460;52.028;8.916;2023-12-28T03:59:14;9.10;99.90
6843;DHT22;3460;52.028;8.916;2023-12-28T04:01:42;9.10;99.90
6843;DHT22;3460;52.028;8.916;2023-12-28T04:04:08;9.10;99.90
6843;DHT22;3460;52.028;8.916;2023-12-28T04:06:37;9.10;99.90
6843;DHT22;3460;52.028;8.916;2023-12-28T04:09:03;9.00;99.90
6843;DHT22;3460;52.028;8.916;2023-12-28T04:11:30;9.10;99.90
6843;DHT22;3460;52.028;8.916;2023-12-28T04:13:57;9.10;99.90
6843;DHT22;3460;52.028;8.916;2023-12-28T04:16:24;9.10;99.90
6843;DHT22;3460;52.028;8.916;2023-12-28T04:18:50;9.10;99.90
6843;DHT22;3460;52.028;8.916;2023-12-28T04:21:17;9.10;99.90
6843;DHT22;3460;52.028;8.916;2023-12-28T04:23:45;9.20;99.90
6843;DHT22;3460;52.028;8.916;2023-12-28T04:26:12;9.20;99.90
6843;DHT22;3460;52.028;8.916;2023-12-28T04:28:39;9.20;99.90
6843;DHT22;3460;52.028;8.916;2023-12-28T04:31:07;9.20;99.90
6843;DHT22;3460;52.028;8.916;2023-12-28T04:33:34;9.20;99.90
6843;DHT22;3460;52.028;8.916;2023-12-28T04:36:01;9.20;99.90
6843;DHT22;3460;52.028;8.916;2023-12-28T04:38:29;9.20;99.90
6843;DHT22;3460;52.028;8.916;2023-12-28T04:40:58;9.30;99.90
6843;DHT22;3460;52.028;8.916;2023-12-28T04:43:25;9.30;99.90
6843;DHT22;3460;52.028;8.916;2023-12-28T04:45:52;9.30;99.90
6843;DHT22;3460;52.028;8.916;2023-12-28T04:48:19;9.30;99.90
6843;DHT22;3460;52.028;8.916;2023-12-28T04:50:46;9.30;99.90
6843;DHT22;3460;52.028;8.916;2023-12-28T04:53:14;9.30;99.90
6843;DHT22;3460;52.028;8.916;2023-12-28T04:55:41;9.30;99.90
6843;DHT22;3460;52.028;8.916;2023-12-28T04:58:10;9.30;99.90
6843;DHT22;3460;52.028;8.916;2023-12-28T05:00:37;9.30;99.90
6843;DHT22;3460;52.028;8.916;2023-12-28T05:03:05;9.40;99.90
6843;DHT22;3460;52.028;8.916;2023-12-28T05:05:32;9.40;99.90
6843;DHT22;3460;52.028;8.916;2023-12-28T05:07:59;9.30;99.90
6843;DHT22;3460;52.028;8.916;2023-12-28T05:10:26;9.40;99.90
6843;DHT22;3460;52.028;8.916;2023-12-28T05:12:53;9.40;99.90
6843;DHT22;3460;52.028;8.916;2023-12-28T05:15:21;9.30;99.90
6843;DHT22;3460;52.028;8.916;2023-12-28T05:17:47;9.30;99.90
6843;DHT22;3460;52.028;8.916;2023-12-28T05:20:16;9.20;99.90
6843;DHT22;3460;52.028;8.916;2023-12-28T05:22:43;9.20;99.90
6843;DHT22;3460;52.028;8.916;2023-12-28T05:25:09;9.30;99.90
6843;DHT22;3460;52.028;8.916;2023-12-28T05:27:36;9.30;99.90
6843;DHT22;3460;52.028;8.916;2023-12-28T05:30:04;9.20;99.90
6843;DHT22;3460;52.028;8.916;2023-12-28T05:32:32;9.30;99.90
6843;DHT22;3460;52.028;8.916;2023-12-28T05:34:59;9.40;99.90
6843;DHT22;3460;52.028;8.916;2023-12-28T05:37:26;9.40;99.90
6843;DHT22;3460;52.028;8.916;2023-12-28T05:39:52;9.40;99.90
6843;DHT22;3460;52.028;8.916;2023-12-28T05:42:19;9.40;99.90
6843;DHT22;3460;52.028;8.916;2023-12-28T05:44:46;9.40;99.90
6843;DHT22;3460;52.028;8.916;2023-12-28T05:47:13;9.30;99.90
6843;DHT22;3460;52.028;8.916;2023-12-28T05:49:41;9.40;99.90
6843;DHT22;3460;52.028;8.916;2023-12-28T05:52:08;9.40;99.90
6843;DHT22;3460;52.028;8.916;2023-12-28T05:54:35;9.40;99.90
6843;DHT22;3460;52.028;8.916;2023-12-28T05:57:01;9.40;99.90
6843;DHT22;3460;52.028;8.916;2023-12-28T05:59:28;9.40;99.90
6843;DHT22;3460;52.028;8.916;2023-12-28T06:01:55;9.30;99.90
6843;DHT22;3460;52.028;8.916;2023-12-28T06:04:22;9.30;99.90
6843;DHT22;3460;52.028;8.916;2023-12-28T06:06:50;9.30;99.90
6843;DHT22;3460;52.028;8.916;2023-12-28T06:09:17;9.30;99.90
6843;DHT22;3460;52.028;8.916;2023-12-28T06:11:43;9.30;99.90
6843;DHT22;3460;52.028;8.916;2023-12-28T06:14:10;9.40;99.90
6843;DHT22;3460;52.028;8.916;2023-12-28T06:16:37;9.30;99.90
6843;DHT22;3460;52.028;8.916;2023-12-28T06:19:04;9.30;99.90
6843;DHT22;3460;52.028;8.916;2023-12-28T06:21:31;9.30;99.90
6843;DHT22;3460;52.028;8.916;2023-12-28T06:24:01;9.30;99.90
6843;DHT22;3460;52.028;8.916;2023-12-28T06:26:28;9.30;99.90
6843;DHT22;3460;52.028;8.916;2023-12-28T06:28:55;9.30;99.90
6843;DHT22;3460;52.028;8.916;2023-12-28T06:31:21;9.30;99.90
6843;DHT22;3460;52.028;8.916;2023-12-28T06:33:48;9.30;99.90
6843;DHT22;3460;52.028;8.916;2023-12-28T06:36:17;9.30;99.90
6843;DHT22;3460;52.028;8.916;2023-12-28T06:38:44;9.30;99.90
6843;DHT22;3460;52.028;8.916;2023-12-28T06:41:12;9.20;99.90
6843;DHT22;3460;52.028;8.916;2023-12-28T06:43:39;9.20;99.90
6843;DHT22;3460;52.028;8.916;2023-12-28T06:46:06;9.20;99.90
6843;DHT22;3460;52.028;8.916;2023-12-28T06:48:33;9.10;99.90
6843;DHT22;3460;52.028;8.916;2023-12-28T06:51:00;9.10;99.90
6843;DHT22;3460;52.028;8.916;2023-12-28T06:53:27;9.10;99.90
6843;DHT22;3460;52.028;8.916;2023-12-28T06:55:54;9.20;99.90
6843;DHT22;3460;52.028;8.916;2023-12-28T06:58:22;9.20;99.90
6843;DHT22;3460;52.028;8.916;2023-12-28T07:00:49;9.20;99.90
6843;DHT22;3460;52.028;8.916;2023-12-28T07:03:16;9.20;99.90
6843;DHT22;3460;52.028;8.916;2023-12-28T07:05:43;9.30;99.90
6843;DHT22;3460;52.028;8.916;2023-12-28T07:08:11;9.30;99.90
6843;DHT22;3460;52.028;8.916;2023-12-28T07:10:37;9.30;99.90
6843;DHT22;3460;52.028;8.916;2023-12-28T07:13:04;9.30;99.90
6843;DHT22;3460;52.028;8.916;2023-12-28T07:15:33;9.30;99.90
6843;DHT22;3460;52.028;8.916;2023-12-28T07:18:00;9.30;99.90
6843;DHT22;3460;52.028;8.916;2023-12-28T07:20:27;9.30;99.90
6843;DHT22;3460;52.028;8.916;2023-12-28T07:22:53;9.30;99.90
6843;DHT22;3460;52.028;8.916;2023-12-28T07:25:20;9.30;99.90
6843;DHT22;3460;52.028;8.916;2023-12-28T07:27:47;9.40;99.90
6843;DHT22;3460;52.028;8.916;2023-12-28T07:30:14;9.40;99.90
6843;DHT22;3460;52.028;8.916;2023-12-28T07:32:43;9.30;99.90
6843;DHT22;3460;52.028;8.916;2023-12-28T07:35:11;9.30;99.90
6843;DHT22;3460;52.028;8.916;2023-12-28T07:37:38;9.40;99.90
6843;DHT22;3460;52.028;8.916;2023-12-28T07:40:06;9.40;99.90
6843;DHT22;3460;52.028;8.916;2023-12-28T07:42:33;9.50;99.90
6843;DHT22;3460;52.028;8.916;2023-12-28T07:44:59;9.50;99.90
6843;DHT22;3460;52.028;8.916;2023-12-28T07:47:26;9.40;99.90
6843;DHT22;3460;52.028;8.916;2023-12-28T07:49:54;9.40;99.90
6843;DHT22;3460;52.028;8.916;2023-12-28T07:52:21;9.40;99.90
6843;DHT22;3460;52.028;8.916;2023-12-28T07:54:48;9.30;99.90
6843;DHT22;3460;52.028;8.916;2023-12-28T07:57:14;9.40;99.90
6843;DHT22;3460;52.028;8.916;2023-12-28T07:59:41;9.30;99.90
6843;DHT22;3460;52.028;8.916;2023-12-28T08:02:09;9.30;99.90
6843;DHT22;3460;52.028;8.916;2023-12-28T08:04:36;9.40;99.90
6843;DHT22;3460;52.028;8.916;2023-12-28T08:07:04;9.30;99.90
6843;DHT22;3460;52.028;8.916;2023-12-28T08:09:32;9.30;99.90
6843;DHT22;3460;52.028;8.916;2023-12-28T08:12:00;9.40;99.90
6843;DHT22;3460;52.028;8.916;2023-12-28T08:14:28;9.40;99.90
6843;DHT22;3460;52.028;8.916;2023-12-28T08:16:54;9.40;99.90
6843;DHT22;3460;52.028;8.916;2023-12-28T08:19:21;9.30;99.90
6843;DHT22;3460;52.028;8.916;2023-12-28T08:21:48;9.30;99.90
6843;DHT22;3460;52.028;8.916;2023-12-28T08:24:16;9.40;99.90
6843;DHT22;3460;52.028;8.916;2023-12-28T08:26:43;9.40;99.90
6843;DHT22;3460;52.028;8.916;2023-12-28T08:29:10;9.40;99.90
6843;DHT22;3460;52.028;8.916;2023-12-28T08:31:36;9.40;99.90
6843;DHT22;3460;52.028;8.916;2023-12-28T08:34:03;9.30;99.90
6843;DHT22;3460;52.028;8.916;2023-12-28T08:36:30;9.40;99.90
6843;DHT22;3460;52.028;8.916;2023-12-28T08:38:57;9.40;99.90
6843;DHT22;3460;52.028;8.916;2023-12-28T08:41:25;9.40;99.90
6843;DHT22;3460;52.028;8.916;2023-12-28T08:43:52;9.40;99.90
6843;DHT22;3460;52.028;8.916;2023-12-28T08:46:20;9.50;99.90
6843;DHT22;3460;52.028;8.916;2023-12-28T08:48:47;9.40;99.90
6843;DHT22;3460;52.028;8.916;2023-12-28T08:51:14;9.40;99.90
6843;DHT22;3460;52.028;8.916;2023-12-28T08:53:41;9.40;99.90
6843;DHT22;3460;52.028;8.916;2023-12-28T08:56:16;9.40;99.90
6843;DHT22;3460;52.028;8.916;2023-12-28T08:58:45;9.40;99.90
6843;DHT22;3460;52.028;8.916;2023-12-28T09:01:16;9.50;99.90
6843;DHT22;3460;52.028;8.916;2023-12-28T09:03:43;9.50;99.90
6843;DHT22;3460;52.028;8.916;2023-12-28T09:06:10;9.50;67.90
6843;DHT22;3460;52.028;8.916;2023-12-28T09:08:37;9.60;51.80
6843;DHT22;3460;52.028;8.916;2023-12-28T09:11:04;9.70;44.50
6843;DHT22;3460;52.028;8.916;2023-12-28T09:13:30;9.70;54.10
6843;DHT22;3460;52.028;8.916;2023-12-28T09:15:59;9.70;41.40
6843;DHT22;3460;52.028;8.916;2023-12-28T09:18:25;9.70;38.40
6843;DHT22;3460;52.028;8.916;2023-12-28T09:20:52;9.70;5.60
6843;DHT22;3460;52.028;8.916;2023-12-28T09:23:19;9.70;22.80
6843;DHT22;3460;52.028;8.916;2023-12-28T09:25:46;9.80;1.00
6843;DHT22;3460;52.028;8.916;2023-12-28T09:28:13;9.80;1.70
6843;DHT22;3460;52.028;8.916;2023-12-28T09:30:40;9.80;1.00
6843;DHT22;3460;52.028;8.916;2023-12-28T09:33:08;9.80;8.60
6843;DHT22;3460;52.028;8.916;2023-12-28T09:35:35;9.80;1.00
6843;DHT22;3460;52.028;8.916;2023-12-28T09:38:02;9.80;25.80
6843;DHT22;3460;52.028;8.916;2023-12-28T09:40:29;9.90;8.20
6843;DHT22;3460;52.028;8.916;2023-12-28T09:43:03;9.90;1.00
6843;DHT22;3460;52.028;8.916;2023-12-28T09:45:32;10.00;1.00
6843;DHT22;3460;52.028;8.916;2023-12-28T09:47:59;10.00;1.00
6843;DHT22;3460;52.028;8.916;2023-12-28T09:50:29;10.10;1.00
6843;DHT22;3460;52.028;8.916;2023-12-28T09:52:56;10.10;1.00
6843;DHT22;3460;52.028;8.916;2023-12-28T09:55:23;10.10;1.00
6843;DHT22;3460;52.028;8.916;2023-12-28T09:57:51;10.20;1.00
6843;DHT22;3460;52.028;8.916;2023-12-28T10:00:18;10.20;1.00
6843;DHT22;3460;52.028;8.916;2023-12-28T10:02:45;10.30;1.00
6843;DHT22;3460;52.028;8.916;2023-12-28T10:05:12;10.30;1.00
6843;DHT22;3460;52.028;8.916;2023-12-28T10:07:42;10.30;1.00
6843;DHT22;3460;52.028;8.916;2023-12-28T10:10:09;10.30;1.00
6843;DHT22;3460;52.028;8.916;2023-12-28T10:12:36;10.30;1.00
6843;DHT22;3460;52.028;8.916;2023-12-28T10:15:04;10.30;1.00
6843;DHT22;3460;52.028;8.916;2023-12-28T10:17:32;10.30;1.00
6843;DHT22;3460;52.028;8.916;2023-12-28T10:19:59;10.40;1.00
6843;DHT22;3460;52.028;8.916;2023-12-28T10:22:30;10.40;1.00
6843;DHT22;3460;52.028;8.916;2023-12-28T10:24:59;10.30;1.00
6843;DHT22;3460;52.028;8.916;2023-12-28T10:27:26;10.40;1.00
6843;DHT22;3460;52.028;8.916;2023-12-28T10:29:54;10.40;1.00
6843;DHT22;3460;52.028;8.916;2023-12-28T10:32:22;10.50;1.00
6843;DHT22;3460;52.028;8.916;2023-12-28T10:34:51;10.60;1.00
6843;DHT22;3460;52.028;8.916;2023-12-28T10:37:19;10.60;1.00
6843;DHT22;3460;52.028;8.916;2023-12-28T10:39:47;10.60;1.00
6843;DHT22;3460;52.028;8.916;2023-12-28T10:42:29;10.60;1.00
6843;DHT22;3460;52.028;8.916;2023-12-28T10:45:02;10.70;1.00
6843;DHT22;3460;52.028;8.916;2023-12-28T10:47:32;10.70;99.90
6843;DHT22;3460;52.028;8.916;2023-12-28T10:50:03;10.60;1.00
6843;DHT22;3460;52.028;8.916;2023-12-28T10:52:31;10.60;1.00
6843;DHT22;3460;52.028;8.916;2023-12-28T10:55:09;10.60;1.00
6843;DHT22;3460;52.028;8.916;2023-12-28T10:57:44;10.60;1.00
6843;DHT22;3460;52.028;8.916;2023-12-28T11:00:19;10.60;1.00
6843;DHT22;3460;52.028;8.916;2023-12-28T11:02:52;10.60;1.00
6843;DHT22;3460;52.028;8.916;2023-12-28T11:05:19;10.60;1.00
6843;DHT22;3460;52.028;8.916;2023-12-28T11:07:48;10.60;99.90
6843;DHT22;3460;52.028;8.916;2023-12-28T11:10:18;10.60;1.00
6843;DHT22;3460;52.028;8.916;2023-12-28T11:12:48;10.60;1.00
6843;DHT22;3460;52.028;8.916;2023-12-28T11:15:16;10.60;99.90
6843;DHT22;3460;52.028;8.916;2023-12-28T11:17:44;10.60;1.00
6843;DHT22;3460;52.028;8.916;2023-12-28T11:20:11;10.60;1.00
6843;DHT22;3460;52.028;8.916;2023-12-28T11:22:40;10.60;1.00
6843;DHT22;3460;52.028;8.916;2023-12-28T11:25:14;10.70;99.90
6843;DHT22;3460;52.028;8.916;2023-12-28T11:27:41;10.80;99.90
6843;DHT22;3460;52.028;8.916;2023-12-28T11:30:11;10.80;99.90
6843;DHT22;3460;52.028;8.916;2023-12-28T11:32:39;10.80;99.90
6843;DHT22;3460;52.028;8.916;2023-12-28T11:35:07;10.70;99.90
6843;DHT22;3460;52.028;8.916;2023-12-28T11:37:36;10.80;99.90
6843;DHT22;3460;52.028;8.916;2023-12-28T11:40:10;10.90;99.90
6843;DHT22;3460;52.028;8.916;2023-12-28T11:42:48;11.00;99.90
6843;DHT22;3460;52.028;8.916;2023-12-28T11:45:17;11.00;99.90
6843;DHT22;3460;52.028;8.916;2023-12-28T11:47:44;11.00;99.90
6843;DHT22;3460;52.028;8.916;2023-12-28T11:50:12;11.00;99.90
6843;DHT22;3460;52.028;8.916;2023-12-28T11:52:40;11.00;99.90
6843;DHT22;3460;52.028;8.916;2023-12-28T11:55:07;10.80;99.90
6843;DHT22;3460;52.028;8.916;2023-12-28T11:57:35;10.90;99.90
6843;DHT22;3460;52.028;8.916;2023-12-28T12:00:03;10.90;99.90
6843;DHT22;3460;52.028;8.916;2023-12-28T12:02:33;10.90;99.90
6843;DHT22;3460;52.028;8.916;2023-12-28T12:05:00;10.90;99.90
6843;DHT22;3460;52.028;8.916;2023-12-28T12:07:28;11.00;99.90
6843;DHT22;3460;52.028;8.916;2023-12-28T12:09:55;11.00;99.90
6843;DHT22;3460;52.028;8.916;2023-12-28T12:12:23;11.00;99.90
6843;DHT22;3460;52.028;8.916;2023-12-28T12:14:49;11.00;99.90
6843;DHT22;3460;52.028;8.916;2023-12-28T12:17:17;10.90;99.90
6843;DHT22;3460;52.028;8.916;2023-12-28T12:19:45;10.90;99.90
6843;DHT22;3460;52.028;8.916;2023-12-28T12:22:15;10.90;99.90
6843;DHT22;3460;52.028;8.916;2023-12-28T12:24:44;10.90;99.90
6843;DHT22;3460;52.028;8.916;2023-12-28T12:27:13;10.90;99.90
6843;DHT22;3460;52.028;8.916;2023-12-28T12:29:40;11.00;99.90
6843;DHT22;3460;52.028;8.916;2023-12-28T12:32:07;11.10;99.90
6843;DHT22;3460;52.028;8.916;2023-12-28T12:34:34;11.10;1.00
6843;DHT22;3460;52.028;8.916;2023-12-28T12:37:02;11.10;99.90
6843;DHT22;3460;52.028;8.916;2023-12-28T12:39:30;11.10;99.90
6843;DHT22;3460;52.028;8.916;2023-12-28T12:41:58;11.30;1.00
6843;DHT22;3460;52.028;8.916;2023-12-28T12:44:24;11.20;1.00
6843;DHT22;3460;52.028;8.916;2023-12-28T12:46:56;11.20;1.00
6843;DHT22;3460;52.028;8.916;2023-12-28T12:49:25;11.10;1.00
6843;DHT22;3460;52.028;8.916;2023-12-28T12:51:52;11.10;1.00
6843;DHT22;3460;52.028;8.916;2023-12-28T12:54:20;11.00;99.90
6843;DHT22;3460;52.028;8.916;2023-12-28T12:56:47;11.10;1.00
6843;DHT22;3460;52.028;8.916;2023-12-28T12:59:14;11.10;1.00
6843;DHT22;3460;52.028;8.916;2023-12-28T13:01:43;11.20;1.00
6843;DHT22;3460;52.028;8.916;2023-12-28T13:04:10;11.20;1.00
6843;DHT22;3460;52.028;8.916;2023-12-28T13:06:37;11.20;1.00
6843;DHT22;3460;52.028;8.916;2023-12-28T13:09:04;11.10;99.90
6843;DHT22;3460;52.028;8.916;2023-12-28T13:11:33;11.10;99.90
6843;DHT22;3460;52.028;8.916;2023-12-28T13:14:00;11.10;99.90
6843;DHT22;3460;52.028;8.916;2023-12-28T13:16:27;11.20;99.90
6843;DHT22;3460;52.028;8.916;2023-12-28T13:18:54;11.20;99.90
6843;DHT22;3460;52.028;8.916;2023-12-28T13:21:21;11.20;99.90
6843;DHT22;3460;52.028;8.916;2023-12-28T13:23:47;11.20;99.90
6843;DHT22;3460;52.028;8.916;2023-12-28T13:26:14;11.00;99.90
6843;DHT22;3460;52.028;8.916;2023-12-28T13:28:43;11.10;99.90
6843;DHT22;3460;52.028;8.916;2023-12-28T13:31:09;11.20;1.00
6843;DHT22;3460;52.028;8.916;2023-12-28T13:33:36;11.20;60.50
6843;DHT22;3460;52.028;8.916;2023-12-28T13:36:03;11.20;1.00
6843;DHT22;3460;52.028;8.916;2023-12-28T13:38:30;11.20;43.70
6843;DHT22;3460;52.028;8.916;2023-12-28T13:40:57;11.20;1.00
6843;DHT22;3460;52.028;8.916;2023-12-28T13:43:24;11.10;70.50
6843;DHT22;3460;52.028;8.916;2023-12-28T13:45:52;11.10;1.00
6843;DHT22;3460;52.028;8.916;2023-12-28T13:48:19;11.00;99.90
6843;DHT22;3460;52.028;8.916;2023-12-28T13:50:45;11.10;99.90
6843;DHT22;3460;52.028;8.916;2023-12-28T13:53:12;11.00;99.90
6843;DHT22;3460;52.028;8.916;2023-12-28T13:55:39;11.10;54.80
6843;DHT22;3460;52.028;8.916;2023-12-28T13:58:06;11.00;99.90
6843;DHT22;3460;52.028;8.916;2023-12-28T14:00:33;11.00;99.90
6843;DHT22;3460;52.028;8.916;2023-12-28T14:03:02;11.00;69.90
6843;DHT22;3460;52.028;8.916;2023-12-28T14:05:29;10.90;99.90
6843;DHT22;3460;52.028;8.916;2023-12-28T14:07:57;10.90;99.90
6843;DHT22;3460;52.028;8.916;2023-12-28T14:10:23;10.90;99.90
6843;DHT22;3460;52.028;8.916;2023-12-28T14:12:50;10.90;99.90
6843;DHT22;3460;52.028;8.916;2023-12-28T14:15:17;10.80;99.90
6843;DHT22;3460;52.028;8.916;2023-12-28T14:17:44;10.80;99.90
6843;DHT22;3460;52.028;8.916;2023-12-28T14:20:12;10.70;1.00
6843;DHT22;3460;52.028;8.916;2023-12-28T14:22:39;10.70;1.00
6843;DHT22;3460;52.028;8.916;2023-12-28T14:25:07;10.80;1.00
6843;DHT22;3460;52.028;8.916;2023-12-28T14:27:37;10.90;99.90
6843;DHT22;3460;52.028;8.916;2023-12-28T14:30:05;10.80;99.90
6843;DHT22;3460;52.028;8.916;2023-12-28T14:32:35;10.80;1.00
6843;DHT22;3460;52.028;8.916;2023-12-28T14:35:03;10.80;99.90
6843;DHT22;3460;52.028;8.916;2023-12-28T14:37:31;10.90;99.90
6843;DHT22;3460;52.028;8.916;2023-12-28T14:39:58;10.80;99.90
6843;DHT22;3460;52.028;8.916;2023-12-28T14:42:25;10.70;99.90
6843;DHT22;3460;52.028;8.916;2023-12-28T14:44:51;10.70;99.90
6843;DHT22;3460;52.028;8.916;2023-12-28T14:47:18;10.80;45.50
6843;DHT22;3460;52.028;8.916;2023-12-28T14:49:45;10.80;20.00
6843;DHT22;3460;52.028;8.916;2023-12-28T14:52:12;10.70;99.90
6843;DHT22;3460;52.028;8.916;2023-12-28T14:54:40;10.70;99.90
6843;DHT22;3460;52.028;8.916;2023-12-28T14:57:07;10.70;99.90
6843;DHT22;3460;52.028;8.916;2023-12-28T14:59:34;10.90;1.00
6843;DHT22;3460;52.028;8.916;2023-12-28T15:02:01;10.80;99.90
6843;DHT22;3460;52.028;8.916;2023-12-28T15:04:28;10.90;1.00
6843;DHT22;3460;52.028;8.916;2023-12-28T15:06:55;10.80;98.70
6843;DHT22;3460;52.028;8.916;2023-12-28T15:09:22;10.70;99.90
6843;DHT22;3460;52.028;8.916;2023-12-28T15:11:51;10.60;99.90
6843;DHT22;3460;52.028;8.916;2023-12-28T15:14:18;10.60;99.90
6843;DHT22;3460;52.028;8.916;2023-12-28T15:16:45;10.60;99.90
6843;DHT22;3460;52.028;8.916;2023-12-28T15:19:13;10.50;1.00
6843;DHT22;3460;52.028;8.916;2023-12-28T15:21:40;10.40;1.00
6843;DHT22;3460;52.028;8.916;2023-12-28T15:24:07;10.30;1.00
6843;DHT22;3460;52.028;8.916;2023-12-28T15:26:34;10.30;1.00
6843;DHT22;3460;52.028;8.916;2023-12-28T15:29:03;10.30;1.00
6843;DHT22;3460;52.028;8.916;2023-12-28T15:31:30;10.20;1.00
6843;DHT22;3460;52.028;8.916;2023-12-28T15:33:56;10.10;1.00
6843;DHT22;3460;52.028;8.916;2023-12-28T15:36:23;10.30;1.00
6843;DHT22;3460;52.028;8.916;2023-12-28T15:38:50;10.30;1.00
6843;DHT22;3460;52.028;8.916;2023-12-28T15:41:17;10.20;1.00
6843;DHT22;3460;52.028;8.916;2023-12-28T15:43:43;10.20;1.00
6843;DHT22;3460;52.028;8.916;2023-12-28T15:46:12;10.20;1.00
6843;DHT22;3460;52.028;8.916;2023-12-28T15:48:39;10.30;1.00
6843;DHT22;3460;52.028;8.916;2023-12-28T15:51:07;10.20;11.50
6843;DHT22;3460;52.028;8.916;2023-12-28T15:53:35;10.20;1.00
6843;DHT22;3460;52.028;8.916;2023-12-28T15:56:02;10.30;1.00
6843;DHT22;3460;52.028;8.916;2023-12-28T15:58:29;10.40;1.00
6843;DHT22;3460;52.028;8.916;2023-12-28T16:00:55;10.30;1.00
6843;DHT22;3460;52.028;8.916;2023-12-28T16:03:25;10.30;1.00
6843;DHT22;3460;52.028;8.916;2023-12-28T16:05:51;10.30;1.00
6843;DHT22;3460;52.028;8.916;2023-12-28T16:08:18;10.20;1.00
6843;DHT22;3460;52.028;8.916;2023-12-28T16:10:45;10.30;1.00
6843;DHT22;3460;52.028;8.916;2023-12-28T16:13:12;10.30;1.00
6843;DHT22;3460;52.028;8.916;2023-12-28T16:15:39;10.30;1.00